createdAt,value
2018-07-17T00:57:07.593Z,22.47
2018-07-17T00:59:36.207Z,22.53
2018-07-17T01:02:10.693Z,23.23
2018-07-17T01:04:44.636Z,21.97
2018-07-17T01:07:18.923Z,22.47
2018-07-17T01:09:53.345Z,21.40
2018-07-17T01:12:20.979Z,20.37
2018-07-17T01:14:59.009Z,21.63
2018-07-17T01:17:28.204Z,21.93
2018-07-17T01:19:56.793Z,22.47
2018-07-17T01:22:25.340Z,23.60
2018-07-17T01:24:53.731Z,22.47
2018-07-17T01:27:23.370Z,22.77
2018-07-17T01:29:52.284Z,23.53
2018-07-17T01:32:20.652Z,33.13
2018-07-17T01:34:49.071Z,25.73
2018-07-17T01:37:19.874Z,24.53
2018-07-17T01:39:48.491Z,25.57
2018-07-17T01:42:17.629Z,24.53
2018-07-17T01:44:46.610Z,25.13
2018-07-17T01:47:15.229Z,25.77
2018-07-17T01:49:43.944Z,26.93
2018-07-17T01:52:12.544Z,28.70
2018-07-17T01:54:41.444Z,27.53
2018-07-17T01:57:10.021Z,27.90
2018-07-17T01:59:38.709Z,27.50
2018-07-17T02:02:07.556Z,40.57
2018-07-17T02:04:35.999Z,26.13
2018-07-17T02:07:05.511Z,27.37
2018-07-17T02:09:34.289Z,26.00
2018-07-17T02:12:02.810Z,26.40
2018-07-17T02:14:31.219Z,26.50
2018-07-17T02:16:59.632Z,26.70
2018-07-17T02:19:27.763Z,25.47
2018-07-17T02:21:56.151Z,25.87
2018-07-17T02:24:24.999Z,26.93
2018-07-17T02:26:53.869Z,26.00
2018-07-17T02:29:22.576Z,27.27
2018-07-17T02:31:51.111Z,26.23
2018-07-17T02:34:20.746Z,27.07
2018-07-17T02:36:49.494Z,26.93
2018-07-17T02:39:18.457Z,25.37
2018-07-17T02:41:47.356Z,25.37
2018-07-17T02:44:15.920Z,26.47
2018-07-17T02:46:44.356Z,30.37
2018-07-17T02:49:13.265Z,30.37
2018-07-17T02:51:42.530Z,27.67
2018-07-17T02:54:10.958Z,26.63
2018-07-17T02:56:39.396Z,29.20
2018-07-17T02:59:07.806Z,28.17
2018-07-17T03:01:36.899Z,27.50
2018-07-17T03:04:06.364Z,26.70
2018-07-17T03:06:34.830Z,28.93
2018-07-17T03:09:03.429Z,29.60
2018-07-17T03:11:32.073Z,41.50
2018-07-17T03:14:01.165Z,27.53
2018-07-17T03:16:29.573Z,27.33
2018-07-17T03:18:58.139Z,28.80
2018-07-17T03:21:27.004Z,29.13
2018-07-17T03:23:55.419Z,27.30
2018-07-17T03:26:23.871Z,26.87
2018-07-17T03:28:52.596Z,31.40
2018-07-17T03:31:20.967Z,31.60
2018-07-17T03:33:49.366Z,25.87
2018-07-17T03:36:17.860Z,25.17
2018-07-17T03:38:46.371Z,28.53
2018-07-17T03:41:15.355Z,23.97
2018-07-17T03:43:44.003Z,28.80
2018-07-17T03:46:12.370Z,27.57
2018-07-17T03:48:40.992Z,23.93
2018-07-17T03:51:10.504Z,25.20
2018-07-17T03:53:39.129Z,24.83
2018-07-17T03:56:07.714Z,23.90
2018-07-17T03:58:36.367Z,22.73
2018-07-17T04:01:04.788Z,23.77
2018-07-17T04:03:33.168Z,22.00
2018-07-17T04:06:01.588Z,21.87
2018-07-17T04:08:30.504Z,30.30
2018-07-17T04:10:58.983Z,24.63
2018-07-17T04:13:27.724Z,22.37
2018-07-17T04:15:56.863Z,23.40
2018-07-17T04:18:25.734Z,23.07
2018-07-17T04:20:54.412Z,22.20
2018-07-17T04:23:23.312Z,24.85
2018-07-17T04:25:52.664Z,22.23
2018-07-17T04:28:21.464Z,23.47
2018-07-17T04:30:50.179Z,22.90
2018-07-17T04:33:18.580Z,32.17
2018-07-17T04:35:46.989Z,21.00
2018-07-17T04:38:16.183Z,22.00
2018-07-17T04:40:44.694Z,24.07
2018-07-17T04:43:13.369Z,21.43
2018-07-17T04:45:41.890Z,22.20
2018-07-17T04:48:10.279Z,20.60
2018-07-17T04:50:39.473Z,19.87
2018-07-17T04:53:07.986Z,20.23
2018-07-17T04:55:36.873Z,20.70
2018-07-17T04:58:06.376Z,20.77
2018-07-17T05:00:34.766Z,20.73
2018-07-17T05:03:03.728Z,19.67
2018-07-17T05:05:32.356Z,21.07
2018-07-17T05:08:01.208Z,19.97
2018-07-17T05:10:30.191Z,20.20
2018-07-17T05:12:58.584Z,20.60
2018-07-17T05:15:27.153Z,19.47
2018-07-17T05:17:56.461Z,19.43
2018-07-17T05:20:24.886Z,19.23
2018-07-17T05:22:53.543Z,24.63
2018-07-17T05:25:22.043Z,17.10
2018-07-17T05:27:50.896Z,17.70
2018-07-17T05:30:19.489Z,15.90
2018-07-17T05:32:47.945Z,16.50
2018-07-17T05:35:16.699Z,16.77
2018-07-17T05:37:45.167Z,16.17
2018-07-17T05:40:14.236Z,19.73
2018-07-17T05:42:42.700Z,16.63
2018-07-17T05:45:11.657Z,16.17
2018-07-17T05:47:41.791Z,17.47
2018-07-17T05:50:11.810Z,18.60
2018-07-17T05:52:41.114Z,17.63
2018-07-17T05:55:09.618Z,15.53
2018-07-17T05:57:38.039Z,14.73
2018-07-17T06:00:07.492Z,15.17
2018-07-17T06:02:36.013Z,14.33
2018-07-17T06:05:04.457Z,11.77
2018-07-17T06:07:32.901Z,11.37
2018-07-17T06:10:02.230Z,10.97
2018-07-17T06:12:30.827Z,12.50
2018-07-17T06:14:59.292Z,10.20
2018-07-17T06:17:27.822Z,10.97
2018-07-17T06:19:56.547Z,9.83
2018-07-17T06:22:25.020Z,10.63
2018-07-17T06:24:54.080Z,9.27
2018-07-17T06:27:22.917Z,11.53
2018-07-17T06:29:51.427Z,9.03
2018-07-17T06:32:20.302Z,9.27
2018-07-17T06:34:49.248Z,11.10
2018-07-17T06:37:17.902Z,9.00
2018-07-17T06:39:47.701Z,8.87
2018-07-17T06:42:16.512Z,8.00
2018-07-17T06:44:45.048Z,8.23
2018-07-17T06:47:14.270Z,7.97
2018-07-17T06:49:43.166Z,13.37
2018-07-17T06:52:12.409Z,8.97
2018-07-17T06:54:40.994Z,8.38
2018-07-17T06:57:09.736Z,8.50
2018-07-17T06:59:38.417Z,7.65
2018-07-17T07:02:08.026Z,8.60
2018-07-17T07:04:36.689Z,7.42
2018-07-17T07:07:06.504Z,9.90
2018-07-17T07:09:34.982Z,9.53
2018-07-17T07:12:03.631Z,9.40
2018-07-17T07:14:32.966Z,7.70
2018-07-17T07:17:01.961Z,7.10
2018-07-17T07:19:35.999Z,6.87
2018-07-17T07:22:05.149Z,8.03
2018-07-17T07:24:33.896Z,7.05
2018-07-17T07:27:02.622Z,6.42
2018-07-17T07:29:30.807Z,8.23
2018-07-17T07:32:00.952Z,7.72
2018-07-17T07:34:29.665Z,8.70
2018-07-17T07:36:58.100Z,5.67
2018-07-17T07:39:27.614Z,8.48
2018-07-17T07:41:56.015Z,5.50
2018-07-17T07:44:24.647Z,8.13
2018-07-17T07:46:53.674Z,5.37
2018-07-17T07:49:22.291Z,6.40
2018-07-17T07:51:50.728Z,6.30
2018-07-17T07:54:19.927Z,7.05
2018-07-17T07:56:48.631Z,7.80
2018-07-17T07:59:17.565Z,7.90
2018-07-17T08:01:45.968Z,7.45
2018-07-17T08:04:15.304Z,7.72
2018-07-17T08:06:43.865Z,6.72
2018-07-17T08:09:12.652Z,5.70
2018-07-17T08:11:41.952Z,5.35
2018-07-17T08:14:10.766Z,5.95
2018-07-17T08:16:39.234Z,6.97
2018-07-17T08:19:08.165Z,8.33
2018-07-17T08:21:37.009Z,5.60
2018-07-17T08:24:05.540Z,9.13
2018-07-17T08:26:35.355Z,6.05
2018-07-17T08:29:05.236Z,5.55
2018-07-17T08:31:33.873Z,5.45
2018-07-17T08:34:02.550Z,6.42
2018-07-17T08:36:31.266Z,5.12
2018-07-17T08:38:59.813Z,6.12
2018-07-17T08:41:28.657Z,5.65
2018-07-17T08:43:57.342Z,5.70
2018-07-17T08:46:27.532Z,5.42
2018-07-17T08:48:56.512Z,6.20
2018-07-17T08:51:24.981Z,5.08
2018-07-17T08:53:53.595Z,6.60
2018-07-17T08:56:22.233Z,4.35
2018-07-17T08:58:50.939Z,6.10
2018-07-17T09:01:20.066Z,6.33
2018-07-17T09:03:48.984Z,5.45
2018-07-17T09:06:18.281Z,6.35
2018-07-17T09:08:46.843Z,5.28
2018-07-17T09:11:15.006Z,4.12
2018-07-17T09:13:43.520Z,5.95
2018-07-17T09:16:13.309Z,3.55
2018-07-17T09:18:43.376Z,3.92
2018-07-17T09:21:12.010Z,3.80
2018-07-17T09:23:41.139Z,5.70
2018-07-17T09:26:09.707Z,7.25
2018-07-17T09:28:38.614Z,4.17
2018-07-17T09:31:07.553Z,3.83
2018-07-17T09:33:36.034Z,4.22
2018-07-17T09:36:04.486Z,3.30
2018-07-17T09:38:33.240Z,5.67
2018-07-17T09:41:01.684Z,4.42
2018-07-17T09:43:31.254Z,5.85
2018-07-17T09:46:00.217Z,2.55
2018-07-17T09:48:28.852Z,3.92
2018-07-17T09:50:57.980Z,3.62
2018-07-17T09:53:26.972Z,5.22
2018-07-17T09:55:55.461Z,3.87
2018-07-17T09:58:24.838Z,5.40
2018-07-17T10:00:58.813Z,5.60
2018-07-17T10:03:28.002Z,4.72
2018-07-17T10:05:56.646Z,4.03
2018-07-17T10:08:25.682Z,4.03
2018-07-17T10:10:54.642Z,3.87
2018-07-17T10:13:24.629Z,4.25
2018-07-17T10:15:54.025Z,4.33
2018-07-17T10:18:22.676Z,4.75
2018-07-17T10:20:51.809Z,3.50
2018-07-17T10:23:20.363Z,3.47
2018-07-17T10:25:49.463Z,4.08
2018-07-17T10:28:17.973Z,3.42
2018-07-17T10:30:46.625Z,7.03
2018-07-17T10:33:15.622Z,4.00
2018-07-17T10:35:44.388Z,6.70
2018-07-17T10:38:13.890Z,3.70
2018-07-17T10:40:44.316Z,4.55
2018-07-17T10:43:16.888Z,4.35
2018-07-17T10:45:45.770Z,3.52
2018-07-17T10:48:15.445Z,4.58
2018-07-17T10:50:44.288Z,3.60
2018-07-17T10:53:12.743Z,3.42
2018-07-17T10:55:41.692Z,4.20
2018-07-17T10:58:10.429Z,3.25
2018-07-17T11:00:40.184Z,5.20
2018-07-17T11:03:09.028Z,5.80
2018-07-17T11:05:37.494Z,3.55
2018-07-17T11:08:07.268Z,4.40
2018-07-17T11:10:35.773Z,4.83
2018-07-17T11:13:04.481Z,3.73
2018-07-17T11:15:32.889Z,3.67
2018-07-17T11:18:02.491Z,4.27
2018-07-17T11:20:31.959Z,4.73
2018-07-17T11:23:00.441Z,3.43
2018-07-17T11:25:29.697Z,3.77
2018-07-17T11:27:59.002Z,4.43
2018-07-17T11:30:28.570Z,3.67
2018-07-17T11:32:57.542Z,3.97
2018-07-17T11:35:27.193Z,5.30
2018-07-17T11:37:55.891Z,3.10
2018-07-17T11:40:24.320Z,3.30
2018-07-17T11:42:52.858Z,6.03
2018-07-17T11:45:21.550Z,3.20
2018-07-17T11:47:50.324Z,3.30
2018-07-17T11:50:18.769Z,4.60
2018-07-17T11:52:47.281Z,3.17
2018-07-17T11:55:15.876Z,5.80
2018-07-17T11:57:44.623Z,4.30
2018-07-17T12:00:13.120Z,3.83
2018-07-17T12:02:42.192Z,3.13
2018-07-17T12:05:10.876Z,5.33
2018-07-17T12:07:40.610Z,4.97
2018-07-17T12:10:09.687Z,5.03
2018-07-17T12:12:38.206Z,4.93
2018-07-17T12:15:06.729Z,4.07
2018-07-17T12:17:35.871Z,6.63
2018-07-17T12:20:05.104Z,3.37
2018-07-17T12:22:33.496Z,5.63
2018-07-17T12:25:03.165Z,2.90
2018-07-17T12:27:31.869Z,3.87
2018-07-17T12:30:00.499Z,7.30
2018-07-17T12:32:28.638Z,3.80
2018-07-17T12:34:57.159Z,2.90
2018-07-17T12:37:25.785Z,3.17
2018-07-17T12:39:54.817Z,3.30
2018-07-17T12:42:23.259Z,6.47
2018-07-17T12:44:52.204Z,2.87
2018-07-17T12:47:21.723Z,3.60
2018-07-17T12:49:50.299Z,3.07
2018-07-17T12:52:25.287Z,4.00
2018-07-17T12:54:53.904Z,4.83
2018-07-17T12:57:22.581Z,2.50
2018-07-17T12:59:51.137Z,7.07
2018-07-17T13:02:21.456Z,2.77
2018-07-17T13:04:52.594Z,6.40
2018-07-17T13:07:21.097Z,3.60
2018-07-17T13:09:50.512Z,3.70
2018-07-17T13:12:19.988Z,5.43
2018-07-17T13:14:49.566Z,4.80
2018-07-17T13:17:18.740Z,4.47
2018-07-17T13:19:47.316Z,3.33
2018-07-17T13:22:15.912Z,3.67
2018-07-17T13:24:44.570Z,2.60
2018-07-17T13:27:13.327Z,2.83
2018-07-17T13:29:42.186Z,4.63
2018-07-17T13:32:11.495Z,2.63
2018-07-17T13:34:40.068Z,2.70
2018-07-17T13:37:09.353Z,3.17
2018-07-17T13:39:37.819Z,2.50
2018-07-17T13:42:06.333Z,4.57
2018-07-17T13:44:35.264Z,3.83
2018-07-17T13:47:03.972Z,3.27
2018-07-17T13:49:32.914Z,3.03
2018-07-17T13:52:02.799Z,5.07
2018-07-17T13:54:31.462Z,6.70
2018-07-17T13:57:00.039Z,8.00
2018-07-17T13:59:28.443Z,7.40
2018-07-17T14:01:56.580Z,6.57
2018-07-17T14:04:25.636Z,4.03
2018-07-17T14:06:54.200Z,3.90
2018-07-17T14:09:22.943Z,4.53
2018-07-17T14:11:51.720Z,5.37
2018-07-17T14:14:20.959Z,5.43
2018-07-17T14:16:49.498Z,6.37
2018-07-17T14:19:18.554Z,9.07
2018-07-17T14:21:47.146Z,7.50
2018-07-17T14:24:15.778Z,5.83
2018-07-17T14:26:44.462Z,7.37
2018-07-17T14:29:13.618Z,6.20
2018-07-17T14:31:42.246Z,6.23
2018-07-17T14:34:11.148Z,4.67
2018-07-17T14:36:39.926Z,4.37
2018-07-17T14:39:11.576Z,5.23
2018-07-17T14:41:40.349Z,4.73
2018-07-17T14:44:08.902Z,4.07
2018-07-17T14:46:37.775Z,3.90
2018-07-17T14:49:06.931Z,3.03
2018-07-17T14:51:36.445Z,2.93
2018-07-17T14:54:11.669Z,4.30
2018-07-17T14:56:40.518Z,3.07
2018-07-17T14:59:09.988Z,5.53
2018-07-17T15:01:38.692Z,2.87
2018-07-17T15:04:08.354Z,3.20
2018-07-17T15:06:36.994Z,2.90
2018-07-17T15:09:08.611Z,6.43
2018-07-17T15:11:37.187Z,4.47
2018-07-17T15:14:05.983Z,4.37
2018-07-17T15:16:34.771Z,6.07
2018-07-17T15:19:03.372Z,3.57
2018-07-17T15:21:32.443Z,3.40
2018-07-17T15:24:01.002Z,3.33
2018-07-17T15:26:29.517Z,4.83
2018-07-17T15:28:57.976Z,3.37
2018-07-17T15:31:26.760Z,3.37
2018-07-17T15:33:55.186Z,3.10
2018-07-17T15:36:23.978Z,3.80
2018-07-17T15:38:52.781Z,4.90
2018-07-17T15:41:21.442Z,5.77
2018-07-17T15:43:49.876Z,3.80
2018-07-17T15:46:18.457Z,5.00
2018-07-17T15:48:47.636Z,3.77
2018-07-17T15:51:17.549Z,3.63
2018-07-17T15:53:46.184Z,3.50
2018-07-17T15:56:15.948Z,4.60
2018-07-17T15:58:45.417Z,5.20
2018-07-17T16:01:14.111Z,3.07
2018-07-17T16:03:44.694Z,3.30
2018-07-17T16:06:13.235Z,3.57
2018-07-17T16:08:41.786Z,4.30
2018-07-17T16:11:13.268Z,7.60
2018-07-17T16:13:42.428Z,4.13
2018-07-17T16:16:11.069Z,4.63
2018-07-17T16:18:40.783Z,3.00
2018-07-17T16:21:09.858Z,6.13
2018-07-17T16:23:38.640Z,4.03
2018-07-17T16:26:07.315Z,4.20
2018-07-17T16:28:35.790Z,3.63
2018-07-17T16:31:04.401Z,3.73
2018-07-17T16:33:33.462Z,4.13
2018-07-17T16:36:02.558Z,3.70
2018-07-17T16:38:30.750Z,3.60
2018-07-17T16:40:59.221Z,2.90
2018-07-17T16:43:27.720Z,4.47
2018-07-17T16:45:57.621Z,4.43
2018-07-17T16:48:26.049Z,3.60
2018-07-17T16:50:55.692Z,3.87
2018-07-17T16:53:24.863Z,4.40
2018-07-17T16:55:53.432Z,4.13
2018-07-17T16:58:23.519Z,4.37
2018-07-17T17:00:51.900Z,3.50
2018-07-17T17:03:20.442Z,3.63
2018-07-17T17:05:48.933Z,6.13
2018-07-17T17:08:17.808Z,4.43
2018-07-17T17:10:46.888Z,2.87
2018-07-17T17:13:15.495Z,3.03
2018-07-17T17:15:44.005Z,2.87
2018-07-17T17:18:13.023Z,3.07
2018-07-17T17:20:42.429Z,3.53
2018-07-17T17:23:10.899Z,3.43
2018-07-17T17:25:39.271Z,3.93
2018-07-17T17:28:07.763Z,4.07
2018-07-17T17:30:36.498Z,2.87
2018-07-17T17:33:05.180Z,2.90
2018-07-17T17:35:34.634Z,3.80
2018-07-17T17:38:03.241Z,2.90
2018-07-17T17:40:31.927Z,6.23
2018-07-17T17:43:01.035Z,2.70
2018-07-17T17:45:31.076Z,3.67
2018-07-17T17:47:59.672Z,3.77
2018-07-17T17:50:28.145Z,4.00
2018-07-17T17:52:57.141Z,3.17
2018-07-17T17:55:25.641Z,2.90
2018-07-17T17:57:55.259Z,3.80
2018-07-17T18:00:24.038Z,3.00
2018-07-17T18:02:53.044Z,3.90
2018-07-17T18:05:21.865Z,3.60
2018-07-17T18:07:50.441Z,4.30
2018-07-17T18:10:19.009Z,5.73
2018-07-17T18:12:48.061Z,3.83
2018-07-17T18:15:18.127Z,7.47
2018-07-17T18:17:46.924Z,3.93
2018-07-17T18:20:15.972Z,3.90
2018-07-17T18:22:44.550Z,3.53
2018-07-17T18:25:13.340Z,5.93
2018-07-17T18:27:41.990Z,4.37
2018-07-17T18:30:10.585Z,3.67
2018-07-17T18:32:39.637Z,2.67
2018-07-17T18:35:08.728Z,3.27
2018-07-17T18:37:38.098Z,2.90
2018-07-17T18:40:06.658Z,3.10
2018-07-17T18:42:35.092Z,4.50
2018-07-17T18:45:03.788Z,2.97
2018-07-17T18:47:32.335Z,3.37
2018-07-17T18:50:12.584Z,2.60
2018-07-17T18:52:30.825Z,3.00
2018-07-17T18:54:59.342Z,3.60
2018-07-17T18:57:28.717Z,3.40
2018-07-17T18:59:57.604Z,4.47
2018-07-17T19:02:26.222Z,5.47
2018-07-17T19:04:54.718Z,4.23
2018-07-17T19:07:23.413Z,5.13
2018-07-17T19:09:53.274Z,3.67
2018-07-17T19:12:22.238Z,5.40
2018-07-17T19:14:50.997Z,4.77
2018-07-17T19:17:20.183Z,4.07
2018-07-17T19:19:48.632Z,4.07
2018-07-17T19:22:17.961Z,4.53
2018-07-17T19:24:46.376Z,4.93
2018-07-17T19:27:15.956Z,4.20
2018-07-17T19:29:45.054Z,3.90
2018-07-17T19:32:13.809Z,5.47
2018-07-17T19:34:42.428Z,5.03
2018-07-17T19:37:11.484Z,4.23
2018-07-17T19:39:40.165Z,3.73
2018-07-17T19:42:08.619Z,4.10
2018-07-17T19:44:37.024Z,4.17
2018-07-17T19:47:06.410Z,7.17
2018-07-17T19:49:35.205Z,4.07
2018-07-17T19:52:09.267Z,3.30
2018-07-17T19:54:39.353Z,5.00
2018-07-17T19:57:10.073Z,3.30
2018-07-17T19:59:41.758Z,4.30
2018-07-17T20:02:10.349Z,4.33
2018-07-17T20:04:40.367Z,5.03
2018-07-17T20:07:09.155Z,7.13
2018-07-17T20:09:37.660Z,4.17
2018-07-17T20:12:06.744Z,3.87
2018-07-17T20:14:35.719Z,3.40
2018-07-17T20:17:04.846Z,3.50
2018-07-17T20:19:33.723Z,3.63
2018-07-17T20:22:02.701Z,3.40
2018-07-17T20:24:31.127Z,3.97
2018-07-17T20:26:59.510Z,4.13
2018-07-17T20:29:28.314Z,3.83
2018-07-17T20:31:57.593Z,5.10
2018-07-17T20:34:27.464Z,4.37
2018-07-17T20:36:56.633Z,4.23
2018-07-17T20:39:25.336Z,4.03
2018-07-17T20:41:54.091Z,3.53
2018-07-17T20:44:22.637Z,3.40
2018-07-17T20:46:51.511Z,4.30
2018-07-17T20:49:20.138Z,3.70
2018-07-17T20:51:48.584Z,3.63
2018-07-17T20:54:17.170Z,4.27
2018-07-17T20:56:46.104Z,5.47
2018-07-17T20:59:14.912Z,3.97
2018-07-17T21:01:44.340Z,4.80
2018-07-17T21:04:13.090Z,4.80
2018-07-17T21:06:41.889Z,4.07
2018-07-17T21:09:13.204Z,5.40
2018-07-17T21:11:41.972Z,5.27
2018-07-17T21:14:11.044Z,5.53
2018-07-17T21:16:40.028Z,6.43
2018-07-17T21:19:09.632Z,3.87
2018-07-17T21:21:38.486Z,4.33
2018-07-17T21:24:07.016Z,4.07
2018-07-17T21:26:35.873Z,4.47
2018-07-17T21:29:04.476Z,3.90
2018-07-17T21:31:32.976Z,4.00
2018-07-17T21:34:01.509Z,3.87
2018-07-17T21:36:30.113Z,6.10
2018-07-17T21:39:00.039Z,4.53
2018-07-17T21:41:28.676Z,5.20
2018-07-17T21:43:57.370Z,5.03
2018-07-17T21:46:25.842Z,6.40
2018-07-17T21:48:54.994Z,4.83
2018-07-17T21:51:23.678Z,6.77
2018-07-17T21:53:52.512Z,5.20
